Terminal Aerodrome Forecast
Issued by NWS

Home | Current Version | Previous Version | Text Only | Print | Product List | Glossary On
Versions: 1 2 3 4 5 6 7 8 9 10 11 12 13 14 15 16 17 18 19 20 21 22 23 24 25 26 27 28
000
FTUS43 KLOT 290424 AAC
TAFDPA
TAF AMD
KDPA 290424Z 2904/2924 08007KT 5SM -SHRA VCTS OVC040CB
      TEMPO 2904/2905 29018G35KT 2SM TSRA OVC020CB
     FM290700 22012G20KT P6SM SCT025 OVC070
     FM291800 23014G23KT P6SM BKN050
     FM292300 24012KT P6SM VCTS BKN050CB PROB30 2923/2924 3SM TSRA
      OVC035CB=

USA.gov is the U.S. government's official web portal to all federal, state and local government web resources and services.